Terminal Aerodrome Forecast
Issued by NWS Upton, NY

Home | Current Version | Previous Version | Text Only | Print | Product List | Glossary On
Versions: 1 2 3 4 5 6 7 8 9 10 11 12 13 14 15 16 17 18 19 20 21 22 23 24 25 26 27 28 29 30 31 32 33
693
FTUS41 KOKX 041759 AAC
TAFISP
TAF AMD
KISP 041759Z 0418/0518 08010KT 5SM -RADZ OVC008
     FM041900 06011G17KT 5SM -SHRA BR OVC008
      TEMPO 0420/0422 2SM TSRA BKN008 OVC015CB
     FM042200 05013G19KT 5SM -DZ BR OVC008
     FM051100 03012G20KT 5SM -DZ BR OVC008
     FM051300 03012G20KT 5SM -DZ OVC015=

USA.gov is the U.S. government's official web portal to all federal, state and local government web resources and services.